Time;durP1;ratioP1;P1;durP2;ratioP2;P2;SDS_P1;SDS_P2;PMS_P1;PMS_P2;Temp;Humidity;BMP_temperature;BMP_pressure;BME280_temperature;BME280_humidity;BME280_pressure;Samples;Min_cycle;Max_cycle;Signal;HPM_P1;HPM_P2
2022/09/16 00:01:14;;;;;;;4.30;1.20;;;;;;;13.15;100.00;100995.56;2614643;36;20031;-56
2022/09/16 00:03:45;;;;;;;1.48;0.90;;;;;;;13.15;100.00;100992.88;2615244;36;20026;-48
2022/09/16 00:06:23;;;;;;;3.45;1.08;;;;;;;13.29;100.00;100995.06;2615282;36;20063;-49
2022/09/16 00:08:52;;;;;;;2.88;1.10;;;;;;;13.41;100.00;100989.47;2614115;36;20050;-50
2022/09/16 00:11:20;;;;;;;3.85;1.17;;;;;;;13.39;100.00;100988.78;2614517;36;20022;-50
2022/09/16 00:13:49;;;;;;;3.63;1.23;;;;;;;13.33;100.00;100982.94;2614329;36;20559;-50
2022/09/16 00:16:21;;;;;;;5.05;1.20;;;;;;;13.25;100.00;100982.84;2615835;31;20393;-54
2022/09/16 00:18:56;;;;;;;1.48;0.90;;;;;;;13.35;100.00;100979.28;2615222;36;20034;-51
2022/09/16 00:21:26;;;;;;;2.53;0.80;;;;;;;13.32;100.00;100977.69;2615505;36;20030;-53
2022/09/16 00:23:54;;;;;;;3.35;0.82;;;;;;;13.41;100.00;100974.13;2614597;36;20034;-50
2022/09/16 00:26:22;;;;;;;1.92;0.70;;;;;;;13.43;100.00;100979.38;2615361;31;20435;-53
2022/09/16 00:28:52;;;;;;;1.77;0.97;;;;;;;13.36;100.00;100975.56;2615484;36;20034;-49
2022/09/16 00:31:23;;;;;;;;;;;;;;;13.33;100.00;100979.38;2616015;54;20035;-49
2022/09/16 00:33:54;;;;;;;3.72;0.90;;;;;;;13.36;100.00;100973.72;2615490;36;19977;-50
2022/09/16 00:36:22;;;;;;;4.13;0.98;;;;;;;13.40;100.00;100977.81;2617176;36;20034;-51
2022/09/16 00:38:53;;;;;;;2.58;0.60;;;;;;;13.47;100.00;100980.75;2615334;36;20082;-53
2022/09/16 00:41:24;;;;;;;0.60;0.60;;;;;;;13.42;100.00;100978.50;2615989;31;20040;-50
2022/09/16 00:43:57;;;;;;;1.23;0.60;;;;;;;13.31;100.00;100976.84;2615933;36;20444;-53
2022/09/16 00:46:32;;;;;;;1.13;0.70;;;;;;;13.31;100.00;100984.09;2612470;31;20065;-50
2022/09/16 00:49:07;;;;;;;3.22;0.88;;;;;;;13.27;100.00;100980.00;2614397;36;20114;-53
2022/09/16 00:51:36;;;;;;;3.05;0.80;;;;;;;13.25;100.00;100984.69;2606289;36;20042;-49
2022/09/16 00:54:08;;;;;;;2.35;0.70;;;;;;;13.13;100.00;100981.34;2603309;31;20042;-50
2022/09/16 00:56:42;;;;;;;3.47;0.77;;;;;;;13.07;100.00;100987.34;2612511;36;20022;-52
2022/09/16 00:59:16;;;;;;;2.20;0.52;;;;;;;13.11;100.00;100984.19;2616460;36;20559;-50
2022/09/16 01:01:45;;;;;;;2.97;0.60;;;;;;;13.22;100.00;100983.16;2613663;31;20035;-54
2022/09/16 01:04:20;;;;;;;;;;;;;;;13.11;100.00;100980.66;2612621;36;20061;-49
2022/09/16 01:06:56;;;;;;;3.47;1.00;;;;;;;12.95;100.00;100987.53;2610589;31;20463;-54
2022/09/16 01:09:28;;;;;;;2.65;0.80;;;;;;;12.96;100.00;100981.13;2610894;36;20039;-51
2022/09/16 01:11:56;;;;;;;2.15;0.63;;;;;;;12.93;100.00;100983.28;2611557;36;20173;-54
2022/09/16 01:17:17;;;;;;;1.38;0.98;;;;;;;12.91;100.00;100986.13;2611840;36;20022;-52
2022/09/16 01:20:11;;;;;;;5.10;0.98;;;;;;;12.94;100.00;100977.75;2614679;36;20045;-50
2022/09/16 01:22:57;;;;;;;4.45;0.90;;;;;;;12.81;100.00;100985.31;2614401;36;20027;-54
2022/09/16 01:25:40;;;;;;;2.20;0.70;;;;;;;12.93;100.00;100978.72;2612069;36;20053;-51
2022/09/16 01:28:34;;;;;;;3.50;0.90;;;;;;;12.91;100.00;100983.44;2611571;36;20030;-51
2022/09/16 01:31:12;;;;;;;3.15;0.60;;;;;;;12.94;100.00;100985.84;2615044;36;20045;-48
2022/09/16 01:33:52;;;;;;;4.20;0.88;;;;;;;12.87;100.00;100987.44;2615095;36;20034;-49
2022/09/16 01:36:42;;;;;;;2.47;0.88;;;;;;;12.78;100.00;100991.88;2615336;36;20030;-54
2022/09/16 01:39:24;;;;;;;3.60;0.85;;;;;;;12.74;100.00;100989.63;2615776;36;20096;-49
2022/09/16 01:42:14;;;;;;;3.25;1.00;;;;;;;12.85;100.00;100993.97;2616169;36;20064;-56
2022/09/16 01:44:49;;;;;;;4.53;0.95;;;;;;;12.81;100.00;100988.03;2615789;36;20093;-52
2022/09/16 01:47:28;;;;;;;1.98;0.80;;;;;;;12.87;100.00;100990.13;2616384;36;20027;-50
2022/09/16 01:50:02;;;;;;;3.03;0.90;;;;;;;12.93;100.00;100994.94;2616495;31;20077;-49
2022/09/16 01:52:41;;;;;;;4.63;1.13;;;;;;;13.06;100.00;100999.13;2616741;36;20447;-50
2022/09/16 01:55:11;;;;;;;3.67;1.38;;;;;;;13.00;100.00;100991.63;2615636;36;20754;-49
2022/09/16 01:57:47;;;;;;;4.95;1.20;;;;;;;13.12;100.00;100993.16;2615593;36;20023;-48
2022/09/16 02:00:17;;;;;;;2.70;0.80;;;;;;;13.14;100.00;100980.34;2615196;31;20035;-49
2022/09/16 02:02:50;;;;;;;;;;;;;;;13.19;100.00;100974.47;2614696;36;20033;-55
2022/09/16 02:05:24;;;;;;;2.72;0.90;;;;;;;13.14;100.00;100964.13;2615561;36;19938;-49
2022/09/16 02:07:57;;;;;;;6.20;1.10;;;;;;;13.10;100.00;100962.72;2616182;31;20295;-53
2022/09/16 02:10:30;;;;;;;3.47;0.70;;;;;;;13.13;100.00;100967.81;2614641;36;20038;-50
2022/09/16 02:13:12;;;;;;;1.25;0.85;;;;;;;13.18;100.00;100965.53;2615998;36;20085;-53
2022/09/16 02:15:43;;;;;;;2.72;1.00;;;;;;;13.18;100.00;100972.81;2615874;36;20038;-51
2022/09/16 02:18:19;;;;;;;1.90;0.60;;;;;;;13.17;100.00;100969.22;2614919;36;20038;-54
2022/09/16 02:20:50;;;;;;;2.72;1.00;;;;;;;13.07;100.00;100976.53;2615721;36;20463;-51
2022/09/16 02:23:22;;;;;;;1.92;0.77;;;;;;;13.09;100.00;100972.69;2614983;36;20027;-55
2022/09/16 02:25:52;;;;;;;2.65;0.70;;;;;;;13.09;100.00;100972.69;2614976;36;20045;-51
2022/09/16 02:28:22;;;;;;;;;;;;;;;13.10;100.00;100973.53;2615560;36;20023;-52
2022/09/16 02:30:54;;;;;;;0.60;0.50;;;;;;;13.09;100.00;100974.56;2616689;31;19939;-50
2022/09/16 02:33:29;;;;;;;1.50;0.65;;;;;;;12.96;100.00;100967.63;2616985;31;20506;-49
2022/09/16 02:35:59;;;;;;;0.93;0.52;;;;;;;13.00;100.00;100972.72;2615952;36;20027;-49
2022/09/16 02:38:32;;;;;;;1.13;0.50;;;;;;;13.04;100.00;100969.56;2615815;36;20042;-53
2022/09/16 02:41:02;;;;;;;1.92;0.50;;;;;;;13.07;100.00;100977.41;2612720;36;20536;-49
2022/09/16 02:43:31;;;;;;;2.25;0.70;;;;;;;13.14;100.00;100978.47;2612834;36;20034;-50
2022/09/16 02:46:10;;;;;;;2.42;0.60;;;;;;;13.14;100.00;100975.78;2611325;36;20080;-50
2022/09/16 02:48:53;;;;;;;1.65;0.77;;;;;;;13.10;100.00;100976.22;2615772;36;20555;-50
2022/09/16 02:51:30;;;;;;;1.98;0.80;;;;;;;13.05;100.00;100978.53;2615804;31;20034;-52
2022/09/16 02:54:03;;;;;;;3.00;0.80;;;;;;;13.08;100.00;100972.84;2612651;36;20544;-50
2022/09/16 02:56:36;;;;;;;3.80;0.73;;;;;;;12.97;100.00;100968.50;2611799;36;20069;-49
2022/09/16 02:59:07;;;;;;;5.50;0.77;;;;;;;13.06;100.00;100969.41;2611608;36;20034;-52
2022/09/16 03:01:42;;;;;;;1.88;0.52;;;;;;;13.11;100.00;100970.66;2611137;36;20038;-49
2022/09/16 03:04:16;;;;;;;3.67;0.80;;;;;;;13.07;100.00;100969.28;2613296;36;20034;-51
2022/09/16 03:06:44;;;;;;;2.72;0.57;;;;;;;13.05;100.00;100967.75;2611810;36;20045;-50
2022/09/16 03:09:15;;;;;;;3.58;0.85;;;;;;;13.02;100.00;100960.78;2610101;36;20065;-54
2022/09/16 03:12:14;;;;;;;2.65;0.70;;;;;;;13.08;100.00;100964.72;2614295;36;20054;-52
2022/09/16 03:14:58;;;;;;;2.55;0.60;;;;;;;13.09;100.00;100955.63;2614134;36;20049;-52
2022/09/16 03:17:42;;;;;;;2.38;0.77;;;;;;;13.14;100.00;100943.34;2615170;31;20038;-49
2022/09/16 03:20:22;;;;;;;1.80;0.60;;;;;;;13.19;100.00;100951.03;2614661;31;20046;-51
2022/09/16 03:22:59;;;;;;;3.35;0.90;;;;;;;13.23;100.00;100951.56;2615837;31;20022;-51
2022/09/16 03:25:38;;;;;;;0.68;0.68;;;;;;;13.14;100.00;100953.31;2614735;36;20440;-54
2022/09/16 03:28:14;;;;;;;1.80;0.65;;;;;;;13.16;100.00;100954.00;2614491;36;20035;-51
2022/09/16 03:30:52;;;;;;;2.75;0.90;;;;;;;13.00;100.00;100956.50;2614767;36;20022;-53
2022/09/16 03:33:25;;;;;;;1.55;0.75;;;;;;;12.90;100.00;100952.00;2615404;31;20085;-55
2022/09/16 03:36:02;;;;;;;2.22;0.70;;;;;;;12.89;100.00;100960.25;2615343;36;20041;-50
2022/09/16 03:38:31;;;;;;;1.70;0.60;;;;;;;12.82;100.00;100960.00;2615397;36;20074;-50
2022/09/16 03:41:00;;;;;;;2.30;1.23;;;;;;;12.77;100.00;100962.31;2614487;36;20061;-53
2022/09/16 03:43:28;;;;;;;2.67;0.70;;;;;;;12.83;100.00;100967.13;2615278;36;20578;-53
2022/09/16 03:45:57;;;;;;;1.40;0.55;;;;;;;12.84;100.00;100973.34;2615202;36;20042;-49
2022/09/16 03:48:25;;;;;;;2.60;0.80;;;;;;;12.73;100.00;100969.00;2615228;36;20038;-56
2022/09/16 03:50:56;;;;;;;4.05;1.00;;;;;;;12.70;100.00;100967.44;2615216;36;20029;-49
2022/09/16 03:53:24;;;;;;;3.67;0.82;;;;;;;12.67;100.00;100967.72;2615159;36;20035;-51
2022/09/16 03:55:52;;;;;;;4.13;1.00;;;;;;;12.66;100.00;100965.19;2614465;36;20479;-54
2022/09/16 03:58:21;;;;;;;1.08;0.60;;;;;;;12.65;100.00;100964.34;2614613;36;20057;-49
2022/09/16 04:00:52;;;;;;;4.82;0.82;;;;;;;12.62;100.00;100962.78;2614455;36;20061;-48
2022/09/16 04:03:20;;;;;;;6.10;1.50;;;;;;;12.58;100.00;100958.66;2615729;36;20419;-50
2022/09/16 04:05:57;;;;;;;2.90;0.80;;;;;;;12.50;100.00;100955.00;2613135;36;20038;-53
2022/09/16 04:08:26;;;;;;;3.15;0.80;;;;;;;12.25;100.00;100957.34;2614430;31;20081;-50
2022/09/16 04:10:58;;;;;;;1.53;0.60;;;;;;;12.24;100.00;100961.88;2615854;36;20031;-51
2022/09/16 04:13:27;;;;;;;1.40;0.43;;;;;;;12.24;100.00;100966.44;2616103;36;20034;-52
2022/09/16 04:15:55;;;;;;;1.75;0.60;;;;;;;12.18;100.00;100967.84;2615831;36;20057;-51
2022/09/16 04:18:23;;;;;;;0.68;0.60;;;;;;;12.18;100.00;100957.06;2614714;36;20038;-53
2022/09/16 04:20:51;;;;;;;1.35;0.50;;;;;;;12.17;100.00;100973.38;2613188;36;20035;-50
2022/09/16 04:23:22;;;;;;;1.60;0.60;;;;;;;12.22;100.00;100963.88;2615449;36;20424;-51
2022/09/16 04:25:56;;;;;;;2.67;0.60;;;;;;;12.26;100.00;100968.00;2614895;36;20583;-52
2022/09/16 04:28:24;;;;;;;4.05;1.20;;;;;;;12.25;100.00;100971.69;2615730;31;20038;-52
2022/09/16 04:30:53;;;;;;;1.92;0.65;;;;;;;12.27;100.00;100964.28;2615207;36;20041;-49
2022/09/16 04:33:22;;;;;;;6.63;1.10;;;;;;;12.33;100.00;100951.22;2614830;36;20119;-55
2022/09/16 04:35:50;;;;;;;4.00;0.68;;;;;;;12.22;100.00;100955.78;2614726;36;20034;-50
2022/09/16 04:38:18;;;;;;;2.28;0.85;;;;;;;12.16;100.00;100959.06;2614588;36;20030;-56
2022/09/16 04:40:49;;;;;;;2.80;0.45;;;;;;;12.13;100.00;100967.44;2614317;36;20057;-49
2022/09/16 04:43:17;;;;;;;2.35;0.80;;;;;;;12.12;100.00;100964.84;2616261;36;20046;-50
2022/09/16 04:45:45;;;;;;;3.25;0.70;;;;;;;12.11;100.00;100961.31;2614120;36;20068;-50
2022/09/16 04:48:14;;;;;;;2.20;0.90;;;;;;;12.03;100.00;100958.50;2615131;36;20427;-54
2022/09/16 04:50:42;;;;;;;4.28;1.52;;;;;;;12.02;100.00;100967.59;2612738;36;20050;-53
2022/09/16 04:53:10;;;;;;;2.20;1.08;;;;;;;12.00;100.00;100965.03;2611832;36;20061;-53
2022/09/16 04:55:39;;;;;;;6.18;0.82;;;;;;;11.98;100.00;100963.47;2614466;36;20038;-53
2022/09/16 04:58:09;;;;;;;1.07;0.60;;;;;;;11.96;100.00;100963.59;2615700;36;20041;-53
2022/09/16 05:00:38;;;;;;;3.53;0.70;;;;;;;11.94;100.00;100960.22;2614876;36;20045;-50
2022/09/16 05:03:06;;;;;;;1.42;0.77;;;;;;;11.94;100.00;100962.03;2615578;36;20073;-52
2022/09/16 05:05:35;;;;;;;1.58;0.73;;;;;;;11.91;100.00;100964.00;2614400;36;20022;-51
2022/09/16 05:08:03;;;;;;;5.18;1.33;;;;;;;11.90;100.00;100964.16;2616118;36;20495;-51
2022/09/16 05:10:32;;;;;;;3.15;1.15;;;;;;;11.86;100.00;100968.97;2615613;36;20022;-53
2022/09/16 05:13:00;;;;;;;2.83;0.90;;;;;;;11.86;100.00;100968.97;2616207;31;20062;-54
2022/09/16 05:15:31;;;;;;;6.53;1.17;;;;;;;11.79;100.00;100964.28;2615061;36;20022;-50
2022/09/16 05:17:59;;;;;;;5.10;0.88;;;;;;;11.72;100.00;100977.50;2614801;36;20038;-55
2022/09/16 05:20:28;;;;;;;5.30;0.90;;;;;;;11.80;100.00;100966.84;2613605;31;20038;-53
2022/09/16 05:22:56;;;;;;;4.03;0.82;;;;;;;11.77;100.00;100972.50;2613266;36;20038;-53
2022/09/16 05:25:24;;;;;;;3.35;0.98;;;;;;;11.72;100.00;100972.09;2613125;36;20026;-52
2022/09/16 05:27:52;;;;;;;2.47;1.20;;;;;;;11.72;100.00;100972.09;2612819;36;20037;-55
2022/09/16 05:30:21;;;;;;;2.65;1.02;;;;;;;11.81;100.00;100965.84;2612699;36;20405;-50
2022/09/16 05:32:54;;;;;;;2.00;0.90;;;;;;;11.83;100.00;100966.56;2612612;36;20046;-52
2022/09/16 05:35:23;;;;;;;1.25;0.70;;;;;;;11.85;100.00;100961.88;2615197;36;20038;-49
2022/09/16 05:37:51;;;;;;;2.63;0.88;;;;;;;11.80;100.00;100968.69;2615952;36;20027;-54
2022/09/16 05:40:19;;;;;;;3.53;1.03;;;;;;;11.79;100.00;100978.59;2615830;36;20038;-49
2022/09/16 05:42:50;;;;;;;2.35;0.90;;;;;;;11.81;100.00;100971.25;2616354;32;20435;-52
2022/09/16 05:45:18;;;;;;;4.13;1.00;;;;;;;11.77;100.00;100979.75;2615786;36;20035;-50
2022/09/16 05:47:51;;;;;;;2.53;0.88;;;;;;;11.85;100.00;100980.75;2616285;36;20069;-50
2022/09/16 05:50:20;;;;;;;2.35;1.25;;;;;;;11.80;100.00;100984.88;2616113;36;20031;-55
2022/09/16 05:52:48;;;;;;;4.55;0.98;;;;;;;11.77;100.00;100986.00;2615834;36;20026;-54
2022/09/16 05:55:16;;;;;;;1.98;0.80;;;;;;;11.74;100.00;100987.13;2615074;36;20033;-52
2022/09/16 05:57:45;;;;;;;3.93;0.90;;;;;;;11.82;100.00;100994.53;2615889;36;20042;-49
2022/09/16 06:00:14;;;;;;;2.13;0.90;;;;;;;11.75;100.00;100988.00;2613391;36;20295;-51
2022/09/16 06:02:42;;;;;;;3.13;0.90;;;;;;;11.81;100.00;100982.03;2615369;36;20023;-49
2022/09/16 06:05:13;;;;;;;6.50;1.00;;;;;;;11.81;100.00;100982.03;2616413;31;20431;-52
2022/09/16 06:07:41;;;;;;;3.03;0.90;;;;;;;11.83;100.00;100976.50;2615631;36;20671;-49
2022/09/16 06:10:10;;;;;;;3.38;0.88;;;;;;;11.86;100.00;100985.13;2614358;31;20026;-54
2022/09/16 06:12:38;;;;;;;2.03;0.60;;;;;;;11.90;100.00;100991.97;2614407;36;20415;-49
2022/09/16 06:15:08;;;;;;;4.20;0.90;;;;;;;11.91;100.00;100982.88;2615058;36;20551;-55
2022/09/16 06:17:37;;;;;;;4.28;0.90;;;;;;;12.00;100.00;100985.75;2614972;36;20425;-50
2022/09/16 06:20:06;;;;;;;1.58;0.70;;;;;;;12.10;100.00;100981.19;2615316;36;20037;-53
2022/09/16 06:22:38;;;;;;;2.70;0.82;;;;;;;12.22;100.00;100980.06;2616212;36;20034;-48
2022/09/16 06:25:07;;;;;;;3.45;0.93;;;;;;;12.55;100.00;100975.16;2614962;36;20034;-52
2022/09/16 06:27:36;;;;;;;1.55;0.70;;;;;;;12.85;100.00;100981.31;2616537;31;20031;-50
2022/09/16 06:30:05;;;;;;;5.72;1.10;;;;;;;13.16;100.00;100981.03;2615058;36;20594;-49
2022/09/16 06:32:33;;;;;;;5.35;0.90;;;;;;;13.40;100.00;100974.28;2616122;31;20030;-57
2022/09/16 06:35:02;;;;;;;1.10;0.67;;;;;;;13.61;100.00;100979.38;2614030;36;20670;-50
2022/09/16 06:37:30;;;;;;;2.80;0.70;;;;;;;13.90;100.00;100981.88;2615494;36;20460;-51
2022/09/16 06:40:01;;;;;;;4.10;0.90;;;;;;;13.99;100.00;100978.22;2615179;36;20041;-49
2022/09/16 06:42:29;;;;;;;4.15;0.70;;;;;;;14.15;100.00;100980.22;2614051;36;20053;-53
2022/09/16 06:44:58;;;;;;;4.05;0.98;;;;;;;14.15;100.00;100979.41;2612396;36;20034;-53
2022/09/16 06:47:26;;;;;;;4.30;0.98;;;;;;;13.94;100.00;100993.22;2612234;36;20041;-51
2022/09/16 06:49:55;;;;;;;4.00;0.80;;;;;;;13.97;100.00;101003.72;2613941;36;20040;-49
2022/09/16 06:52:24;;;;;;;5.13;0.80;;;;;;;13.92;100.00;101000.66;2614837;31;20038;-49
2022/09/16 06:54:52;;;;;;;2.55;0.70;;;;;;;13.82;100.00;100995.31;2614658;36;20540;-49
2022/09/16 06:57:24;;;;;;;7.33;1.13;;;;;;;13.74;100.00;100995.25;2611786;31;20041;-53
2022/09/16 06:59:52;;;;;;;2.42;0.50;;;;;;;13.71;100.00;100987.44;2611706;36;20042;-52
2022/09/16 07:02:21;;;;;;;5.05;0.70;;;;;;;13.69;100.00;100984.88;2612417;31;20527;-54
2022/09/16 07:04:49;;;;;;;6.60;0.80;;;;;;;13.67;100.00;100982.31;2611742;36;20058;-54
2022/09/16 07:07:18;;;;;;;5.47;0.88;;;;;;;13.65;100.00;100976.22;2611966;36;20034;-49
2022/09/16 07:09:47;;;;;;;2.42;0.88;;;;;;;13.68;100.00;100975.06;2611121;36;20053;-50
2022/09/16 07:12:15;;;;;;;5.25;1.10;;;;;;;13.83;100.00;100972.69;2611399;31;20038;-54
2022/09/16 07:14:46;;;;;;;2.33;0.73;;;;;;;13.69;100.00;100973.19;2611511;36;20030;-52
2022/09/16 07:17:14;;;;;;;4.53;0.80;;;;;;;13.78;100.00;100973.16;2614934;36;20046;-50
2022/09/16 07:19:43;;;;;;;3.30;1.00;;;;;;;13.74;100.00;100979.03;2614685;36;20034;-50
2022/09/16 07:22:11;;;;;;;6.45;0.80;;;;;;;13.75;100.00;100976.16;2615715;36;20029;-50
2022/09/16 07:24:40;;;;;;;3.33;0.75;;;;;;;13.78;100.00;100969.56;2614552;36;20416;-49
2022/09/16 07:27:08;;;;;;;5.72;1.15;;;;;;;13.70;100.00;100974.91;2614104;36;20077;-50
2022/09/16 07:29:36;;;;;;;4.60;0.80;;;;;;;13.76;100.00;100980.53;2612564;36;20097;-53
2022/09/16 07:32:07;;;;;;;3.35;0.80;;;;;;;13.96;100.00;100970.44;2611607;36;20034;-49
2022/09/16 07:34:36;;;;;;;2.45;0.60;;;;;;;14.00;100.00;100984.47;2612876;36;20057;-51
2022/09/16 07:37:04;;;;;;;2.55;0.70;;;;;;;14.06;100.00;100975.75;2615412;36;20416;-53
2022/09/16 07:39:32;;;;;;;4.82;0.80;;;;;;;14.20;100.00;100974.34;2615151;36;20022;-55
2022/09/16 07:42:02;;;;;;;1.38;0.70;;;;;;;14.53;100.00;100982.69;2612232;36;20047;-55
2022/09/16 07:44:31;;;;;;;4.40;0.82;;;;;;;14.64;100.00;100979.75;2611268;36;20050;-54
2022/09/16 07:46:59;;;;;;;2.33;0.77;;;;;;;14.94;100.00;100984.84;2612208;36;20578;-51
2022/09/16 07:49:30;;;;;;;2.30;0.55;;;;;;;15.11;100.00;100981.19;2612120;36;20038;-49
2022/09/16 07:51:59;;;;;;;3.13;0.80;;;;;;;15.11;100.00;100989.31;2613427;36;20046;-50
2022/09/16 07:54:27;;;;;;;3.72;0.70;;;;;;;15.03;100.00;100990.16;2613788;36;20626;-51
2022/09/16 07:56:55;;;;;;;3.23;0.70;;;;;;;15.00;100.00;100995.91;2615221;36;20038;-49
2022/09/16 07:59:24;;;;;;;3.00;0.80;;;;;;;15.05;100.00;100996.25;2613506;36;20041;-52
2022/09/16 08:01:52;;;;;;;1.10;0.40;;;;;;;15.22;100.00;100999.03;2615607;36;20435;-51
2022/09/16 08:04:21;;;;;;;2.75;0.80;;;;;;;15.29;100.00;101002.78;2613747;36;20728;-50
2022/09/16 08:06:52;;;;;;;4.78;0.70;;;;;;;15.48;100.00;100998.94;2612289;36;20039;-49
2022/09/16 08:09:21;;;;;;;3.85;1.00;;;;;;;15.50;100.00;100999.66;2611020;36;20030;-53
2022/09/16 08:11:50;;;;;;;1.95;0.60;;;;;;;15.97;100.00;101006.38;2611949;36;20026;-53
2022/09/16 08:14:18;;;;;;;2.83;0.70;;;;;;;15.92;100.00;101008.75;2612440;31;20038;-54
2022/09/16 08:16:50;;;;;;;3.88;0.73;;;;;;;15.79;100.00;100997.53;2612592;36;20443;-50
2022/09/16 08:19:18;;;;;;;2.80;0.90;;;;;;;15.61;100.00;100998.47;2612148;36;20035;-53
2022/09/16 08:21:46;;;;;;;5.25;1.00;;;;;;;15.18;100.00;100990.38;2606355;36;20125;-54
2022/09/16 08:24:17;;;;;;;5.03;1.00;;;;;;;14.97;100.00;100998.94;2613409;36;20039;-51
2022/09/16 08:26:46;;;;;;;2.45;0.60;;;;;;;14.87;100.00;100996.31;2613204;36;20567;-56
2022/09/16 08:29:14;;;;;;;4.78;0.93;;;;;;;14.79;100.00;101004.41;2615800;31;20034;-54
2022/09/16 08:31:42;;;;;;;1.65;0.65;;;;;;;15.13;100.00;101005.44;2615812;36;20034;-49
2022/09/16 08:34:10;;;;;;;3.15;1.10;;;;;;;15.39;100.00;101006.22;2613249;36;20046;-50
2022/09/16 08:36:39;;;;;;;3.10;0.93;;;;;;;15.35;100.00;101001.28;2615854;36;20474;-56
2022/09/16 08:39:07;;;;;;;4.17;0.83;;;;;;;15.55;100.00;101018.13;2614651;36;20041;-50
2022/09/16 08:41:59;;;;;;;1.93;0.53;;;;;;;15.58;100.00;101009.66;2611021;36;20031;-54
2022/09/16 08:44:38;;;;;;;4.30;1.33;;;;;;;15.39;100.00;101017.06;2602660;36;20034;-50
2022/09/16 08:47:25;;;;;;;6.97;1.15;;;;;;;15.71;100.00;101022.78;2611737;36;20684;-55
2022/09/16 08:49:54;;;;;;;2.40;0.65;;;;;;;15.96;100.00;101017.41;2610068;36;20038;-50
2022/09/16 08:52:31;;;;;;;2.22;0.70;;;;;;;16.21;100.00;101013.69;2608594;36;20038;-53
2022/09/16 08:55:02;;;;;;;2.13;0.75;;;;;;;16.08;100.00;101018.78;2613983;36;20097;-49
2022/09/16 08:57:40;;;;;;;1.80;0.50;;;;;;;16.31;100.00;101010.78;2614885;36;20551;-49
2022/09/16 09:00:15;;;;;;;1.58;0.90;;;;;;;16.32;100.00;101011.66;2614772;36;20459;-50
2022/09/16 09:02:49;;;;;;;1.73;0.70;;;;;;;16.28;100.00;101016.56;2614648;36;20630;-49
2022/09/16 09:05:20;;;;;;;2.05;0.70;;;;;;;16.23;100.00;101011.66;2614170;36;20029;-50
2022/09/16 09:08:03;;;;;;;1.50;0.60;;;;;;;16.32;100.00;101020.66;2615633;31;20037;-49
2022/09/16 09:10:41;;;;;;;1.73;0.60;;;;;;;16.15;100.00;101017.09;2615853;31;20543;-49
2022/09/16 09:13:23;;;;;;;1.90;0.60;;;;;;;16.13;100.00;101021.81;2614808;36;20030;-50
2022/09/16 09:15:56;;;;;;;2.25;0.57;;;;;;;15.80;100.00;101023.63;2614350;36;20535;-52
2022/09/16 09:18:38;;;;;;;1.67;0.60;;;;;;;15.91;100.00;101015.19;2614071;36;20042;-48
2022/09/16 09:21:20;;;;;;;1.63;0.65;;;;;;;16.03;100.00;101023.84;2614126;36;20043;-52
2022/09/16 09:24:07;;;;;;;1.88;0.85;;;;;;;16.35;100.00;101023.03;2615378;36;20038;-51
2022/09/16 09:26:46;;;;;;;4.22;0.70;;;;;;;16.40;100.00;101020.66;2615856;36;20034;-49
2022/09/16 09:29:42;;;;;;;3.40;0.60;;;;;;;16.43;100.00;101023.03;2613555;36;20034;-48
2022/09/16 09:32:22;;;;;;;1.35;0.52;;;;;;;15.73;100.00;101027.00;2614857;36;20030;-51
2022/09/16 09:35:04;;;;;;;0.85;0.70;;;;;;;15.28;100.00;101030.06;2614025;36;20578;-48
2022/09/16 09:37:46;;;;;;;2.28;0.80;;;;;;;15.32;100.00;101032.28;2615288;36;20630;-48
2022/09/16 09:40:19;;;;;;;3.35;0.63;;;;;;;15.41;100.00;101028.59;2614807;36;20042;-49
2022/09/16 09:42:53;;;;;;;4.15;0.95;;;;;;;15.53;100.00;101034.59;2615868;31;20037;-48
2022/09/16 09:45:30;;;;;;;3.50;0.63;;;;;;;15.52;100.00;101034.75;2614442;36;20046;-49
2022/09/16 09:48:02;;;;;;;1.85;0.60;;;;;;;15.94;100.00;101028.41;2615871;31;20030;-47
2022/09/16 09:50:43;;;;;;;5.38;0.90;;;;;;;16.15;100.00;101035.22;2616378;36;20475;-54
2022/09/16 09:53:19;;;;;;;2.13;0.70;;;;;;;16.54;100.00;101031.84;2614663;36;20593;-50
2022/09/16 09:55:48;;;;;;;2.17;0.68;;;;;;;16.53;100.00;101024.72;2615238;36;20042;-48
2022/09/16 09:58:25;;;;;;;4.83;1.20;;;;;;;16.62;100.00;101026.38;2614738;36;20030;-50
2022/09/16 10:00:57;;;;;;;2.55;0.73;;;;;;;16.84;100.00;101024.81;2613313;36;20026;-50
2022/09/16 10:03:27;;;;;;;3.28;0.90;;;;;;;17.13;100.00;101016.09;2614653;36;20100;-49
2022/09/16 10:05:58;;;;;;;1.10;0.50;;;;;;;17.15;100.00;101022.22;2615374;36;20029;-48
2022/09/16 10:08:29;;;;;;;4.43;0.75;;;;;;;17.40;100.00;101022.16;2615259;36;20030;-47
2022/09/16 10:11:00;;;;;;;3.03;0.65;;;;;;;17.03;100.00;101012.75;2614351;36;20061;-48
2022/09/16 10:13:30;;;;;;;2.03;0.52;;;;;;;17.24;100.00;101028.50;2614950;36;20034;-49
2022/09/16 10:16:16;;;;;;;1.15;0.47;;;;;;;17.08;100.00;101026.69;2614979;36;20041;-51
2022/09/16 10:18:46;;;;;;;1.10;0.50;;;;;;;16.93;100.00;101039.28;2614092;36;20037;-48
2022/09/16 10:21:17;;;;;;;5.07;0.82;;;;;;;16.57;100.00;101053.25;2611988;36;20034;-49
2022/09/16 10:23:56;;;;;;;2.67;0.65;;;;;;;16.41;100.00;101049.50;2611960;36;20030;-50
2022/09/16 10:26:25;;;;;;;;;;;;;;;16.01;100.00;101059.31;2612123;36;20042;-49
2022/09/16 10:29:02;;;;;;;1.98;1.23;;;;;;;15.89;100.00;101060.66;2613586;36;19951;-49
2022/09/16 10:31:41;;;;;;;1.70;0.77;;;;;;;15.83;100.00;101062.16;2615128;36;20027;-49
2022/09/16 10:34:18;;;;;;;3.38;0.75;;;;;;;15.33;100.00;101063.81;2614365;36;20030;-52
2022/09/16 10:36:47;;;;;;;4.47;0.70;;;;;;;15.44;100.00;101061.84;2614773;36;20038;-48
2022/09/16 10:39:27;;;;;;;2.22;0.60;;;;;;;15.50;100.00;101056.63;2612884;36;20041;-51
2022/09/16 10:41:55;;;;;;;1.17;0.50;;;;;;;15.14;100.00;101055.94;2610968;36;20061;-51
2022/09/16 10:44:27;;;;;;;2.27;0.63;;;;;;;15.41;100.00;101053.03;2614945;36;21043;-49
2022/09/16 10:47:02;;;;;;;4.63;1.02;;;;;;;15.64;100.00;101036.13;2615841;36;20026;-53
2022/09/16 10:49:39;;;;;;;3.55;1.15;;;;;;;15.62;100.00;101032.75;2613842;36;20034;-49
2022/09/16 10:52:17;;;;;;;3.50;0.70;;;;;;;15.59;100.00;101039.34;2615856;36;20034;-49
2022/09/16 10:54:46;;;;;;;2.30;0.68;;;;;;;15.61;100.00;101036.47;2613150;36;20041;-52
2022/09/16 10:57:27;;;;;;;3.10;1.17;;;;;;;15.80;100.00;101035.38;2615406;36;20570;-50
2022/09/16 11:00:07;;;;;;;3.08;0.93;;;;;;;16.00;100.00;101024.19;2614869;36;20117;-50
2022/09/16 11:03:12;;;;;;;3.00;0.80;;;;;;;16.14;100.00;101041.69;2615185;36;20034;-52
2022/09/16 11:05:53;;;;;;;3.22;1.00;;;;;;;16.39;100.00;101027.09;2615242;36;20065;-49
2022/09/16 11:08:34;;;;;;;4.05;0.70;;;;;;;16.66;100.00;101030.47;2615417;36;20054;-55
2022/09/16 11:11:12;;;;;;;3.33;0.73;;;;;;;16.46;100.00;101025.41;2612568;36;20063;-49
2022/09/16 11:13:50;;;;;;;7.50;1.37;;;;;;;16.68;100.00;101022.13;2614751;36;20053;-50
2022/09/16 11:16:31;;;;;;;1.27;0.57;;;;;;;16.65;100.00;101023.31;2613982;36;20035;-51
2022/09/16 11:19:10;;;;;;;1.98;0.70;;;;;;;16.71;100.00;101014.50;2611851;36;20026;-48
2022/09/16 11:21:55;;;;;;;3.25;0.77;;;;;;;16.98;100.00;101015.16;2611839;36;20036;-50
2022/09/16 11:24:50;;;;;;;1.52;0.60;;;;;;;17.09;100.00;101020.22;2611775;36;20355;-49
2022/09/16 11:27:30;;;;;;;7.28;1.27;;;;;;;17.11;100.00;101014.59;2613683;36;20030;-47
2022/09/16 11:30:09;;;;;;;3.08;0.68;;;;;;;17.23;100.00;101017.78;2612687;36;20030;-49
2022/09/16 11:33:01;;;;;;;2.58;0.60;;;;;;;17.58;100.00;101008.28;2614576;36;20057;-53
2022/09/16 11:35:55;;;;;;;1.90;1.00;;;;;;;17.67;100.00;101011.78;2614473;36;20031;-51
2022/09/16 11:38:37;;;;;;;3.17;0.90;;;;;;;17.82;100.00;101009.97;2616143;36;21059;-54
2022/09/16 11:41:12;;;;;;;4.30;1.00;;;;;;;18.02;100.00;101014.97;2614910;31;20462;-54
2022/09/16 11:43:55;;;;;;;5.00;1.45;;;;;;;17.89;100.00;101003.81;2612343;36;20150;-52
2022/09/16 11:46:29;;;;;;;6.95;1.40;;;;;;;18.41;100.00;101014.00;2613515;36;20150;-48
2022/09/16 11:49:19;;;;;;;7.28;1.10;;;;;;;18.22;100.00;101007.19;2612085;36;20064;-50